sensor_id;sensor_type;location;lat;lon;timestamp;temperature;humidity
35668;DHT22;22158;59.280;17.806;2022-08-05T00:02:24;19.10;99.90
35668;DHT22;22158;59.280;17.806;2022-08-05T00:04:49;19.10;99.90
35668;DHT22;22158;59.280;17.806;2022-08-05T00:07:15;19.10;99.90
35668;DHT22;22158;59.280;17.806;2022-08-05T00:09:41;19.00;99.90
35668;DHT22;22158;59.280;17.806;2022-08-05T00:12:06;19.00;99.90
35668;DHT22;22158;59.280;17.806;2022-08-05T00:14:32;19.00;99.90
35668;DHT22;22158;59.280;17.806;2022-08-05T00:16:58;19.00;99.90
35668;DHT22;22158;59.280;17.806;2022-08-05T00:19:25;19.00;99.90
35668;DHT22;22158;59.280;17.806;2022-08-05T00:21:50;19.00;99.90
35668;DHT22;22158;59.280;17.806;2022-08-05T00:24:17;18.90;99.90
35668;DHT22;22158;59.280;17.806;2022-08-05T00:26:42;18.90;99.90
35668;DHT22;22158;59.280;17.806;2022-08-05T00:29:08;18.90;99.90
35668;DHT22;22158;59.280;17.806;2022-08-05T00:31:33;18.90;99.90
35668;DHT22;22158;59.280;17.806;2022-08-05T00:33:59;18.90;99.90
35668;DHT22;22158;59.280;17.806;2022-08-05T00:36:25;18.90;99.90
35668;DHT22;22158;59.280;17.806;2022-08-05T00:38:51;18.90;99.90
35668;DHT22;22158;59.280;17.806;2022-08-05T00:41:31;18.90;99.90
35668;DHT22;22158;59.280;17.806;2022-08-05T00:43:57;18.90;99.90
35668;DHT22;22158;59.280;17.806;2022-08-05T00:46:23;18.90;99.90
35668;DHT22;22158;59.280;17.806;2022-08-05T00:48:49;18.90;99.90
35668;DHT22;22158;59.280;17.806;2022-08-05T00:51:15;18.90;99.90
35668;DHT22;22158;59.280;17.806;2022-08-05T00:53:40;18.90;99.90
35668;DHT22;22158;59.280;17.806;2022-08-05T00:56:06;19.00;99.90
35668;DHT22;22158;59.280;17.806;2022-08-05T00:58:32;19.00;99.90
35668;DHT22;22158;59.280;17.806;2022-08-05T01:00:58;19.00;99.90
35668;DHT22;22158;59.280;17.806;2022-08-05T01:03:24;19.00;99.90
35668;DHT22;22158;59.280;17.806;2022-08-05T01:05:53;19.10;99.90
35668;DHT22;22158;59.280;17.806;2022-08-05T01:08:19;19.10;99.90
35668;DHT22;22158;59.280;17.806;2022-08-05T01:10:57;19.10;99.90
35668;DHT22;22158;59.280;17.806;2022-08-05T01:16:29;19.20;99.90
35668;DHT22;22158;59.280;17.806;2022-08-05T01:19:10;19.20;99.90
35668;DHT22;22158;59.280;17.806;2022-08-05T01:27:23;19.20;99.90
35668;DHT22;22158;59.280;17.806;2022-08-05T01:29:55;19.20;99.90
35668;DHT22;22158;59.280;17.806;2022-08-05T01:32:26;19.20;99.90
35668;DHT22;22158;59.280;17.806;2022-08-05T01:35:01;19.20;99.90
35668;DHT22;22158;59.280;17.806;2022-08-05T01:37:46;19.20;99.90
35668;DHT22;22158;59.280;17.806;2022-08-05T01:40:14;19.20;99.90
35668;DHT22;22158;59.280;17.806;2022-08-05T01:42:42;19.20;99.90
35668;DHT22;22158;59.280;17.806;2022-08-05T01:45:09;19.20;99.90
35668;DHT22;22158;59.280;17.806;2022-08-05T01:47:38;19.20;99.90
35668;DHT22;22158;59.280;17.806;2022-08-05T01:50:28;19.20;99.90
35668;DHT22;22158;59.280;17.806;2022-08-05T01:52:53;19.20;99.90
35668;DHT22;22158;59.280;17.806;2022-08-05T01:55:23;19.10;99.90
35668;DHT22;22158;59.280;17.806;2022-08-05T01:57:51;19.20;99.90
35668;DHT22;22158;59.280;17.806;2022-08-05T02:00:18;19.10;99.90
35668;DHT22;22158;59.280;17.806;2022-08-05T02:02:54;19.10;99.90
35668;DHT22;22158;59.280;17.806;2022-08-05T02:05:22;19.20;99.90
35668;DHT22;22158;59.280;17.806;2022-08-05T02:07:49;19.20;99.90
35668;DHT22;22158;59.280;17.806;2022-08-05T02:10:15;19.20;99.90
35668;DHT22;22158;59.280;17.806;2022-08-05T02:12:59;19.20;99.90
35668;DHT22;22158;59.280;17.806;2022-08-05T02:15:34;19.20;99.90
35668;DHT22;22158;59.280;17.806;2022-08-05T02:18:07;19.20;99.90
35668;DHT22;22158;59.280;17.806;2022-08-05T02:20:52;19.20;99.90
35668;DHT22;22158;59.280;17.806;2022-08-05T02:23:23;19.10;99.90
35668;DHT22;22158;59.280;17.806;2022-08-05T02:25:51;19.10;99.90
35668;DHT22;22158;59.280;17.806;2022-08-05T02:28:23;19.20;99.90
35668;DHT22;22158;59.280;17.806;2022-08-05T02:30:55;19.20;99.90
35668;DHT22;22158;59.280;17.806;2022-08-05T02:33:22;19.20;99.90
35668;DHT22;22158;59.280;17.806;2022-08-05T02:35:49;19.20;99.90
35668;DHT22;22158;59.280;17.806;2022-08-05T02:38:16;19.20;99.90
35668;DHT22;22158;59.280;17.806;2022-08-05T02:40:43;19.20;99.90
35668;DHT22;22158;59.280;17.806;2022-08-05T02:43:11;19.20;99.90
35668;DHT22;22158;59.280;17.806;2022-08-05T02:45:39;19.20;99.90
35668;DHT22;22158;59.280;17.806;2022-08-05T02:48:06;19.20;99.90
35668;DHT22;22158;59.280;17.806;2022-08-05T02:50:34;19.20;99.90
35668;DHT22;22158;59.280;17.806;2022-08-05T02:53:00;19.20;99.90
35668;DHT22;22158;59.280;17.806;2022-08-05T02:55:27;19.20;99.90
35668;DHT22;22158;59.280;17.806;2022-08-05T02:57:55;19.20;99.90
35668;DHT22;22158;59.280;17.806;2022-08-05T03:00:21;19.20;99.90
35668;DHT22;22158;59.280;17.806;2022-08-05T03:02:47;19.20;99.90
35668;DHT22;22158;59.280;17.806;2022-08-05T03:05:14;19.20;99.90
35668;DHT22;22158;59.280;17.806;2022-08-05T03:07:40;19.20;99.90
35668;DHT22;22158;59.280;17.806;2022-08-05T03:10:07;19.30;99.90
35668;DHT22;22158;59.280;17.806;2022-08-05T03:12:34;19.20;99.90
35668;DHT22;22158;59.280;17.806;2022-08-05T03:15:00;19.30;99.90
35668;DHT22;22158;59.280;17.806;2022-08-05T03:17:26;19.40;99.90
35668;DHT22;22158;59.280;17.806;2022-08-05T03:19:52;19.40;99.90
35668;DHT22;22158;59.280;17.806;2022-08-05T03:22:17;19.30;99.90
35668;DHT22;22158;59.280;17.806;2022-08-05T03:24:44;19.30;99.90
35668;DHT22;22158;59.280;17.806;2022-08-05T03:27:11;19.40;99.90
35668;DHT22;22158;59.280;17.806;2022-08-05T03:29:37;19.40;99.90
35668;DHT22;22158;59.280;17.806;2022-08-05T03:32:07;19.40;99.90
35668;DHT22;22158;59.280;17.806;2022-08-05T03:34:33;19.40;99.90
35668;DHT22;22158;59.280;17.806;2022-08-05T03:36:59;19.40;99.90
35668;DHT22;22158;59.280;17.806;2022-08-05T03:39:26;19.40;99.90
35668;DHT22;22158;59.280;17.806;2022-08-05T03:41:51;19.50;99.90
35668;DHT22;22158;59.280;17.806;2022-08-05T03:44:17;19.50;99.90
35668;DHT22;22158;59.280;17.806;2022-08-05T03:46:42;19.50;99.90
35668;DHT22;22158;59.280;17.806;2022-08-05T03:49:08;19.50;99.90
35668;DHT22;22158;59.280;17.806;2022-08-05T03:52:00;19.50;99.90
35668;DHT22;22158;59.280;17.806;2022-08-05T03:54:34;19.50;99.90
35668;DHT22;22158;59.280;17.806;2022-08-05T03:57:02;19.50;99.90
35668;DHT22;22158;59.280;17.806;2022-08-05T03:59:36;19.50;99.90
35668;DHT22;22158;59.280;17.806;2022-08-05T04:02:04;19.50;99.90
35668;DHT22;22158;59.280;17.806;2022-08-05T04:04:31;19.40;99.90
35668;DHT22;22158;59.280;17.806;2022-08-05T04:06:59;19.40;99.90
35668;DHT22;22158;59.280;17.806;2022-08-05T04:09:25;19.50;99.90
35668;DHT22;22158;59.280;17.806;2022-08-05T04:11:51;19.50;99.90
35668;DHT22;22158;59.280;17.806;2022-08-05T04:14:18;19.40;99.90
35668;DHT22;22158;59.280;17.806;2022-08-05T04:16:44;19.40;99.90
35668;DHT22;22158;59.280;17.806;2022-08-05T04:19:11;19.40;99.90
35668;DHT22;22158;59.280;17.806;2022-08-05T04:21:37;19.40;99.90
35668;DHT22;22158;59.280;17.806;2022-08-05T04:24:03;19.30;99.90
35668;DHT22;22158;59.280;17.806;2022-08-05T04:26:29;19.30;99.90
35668;DHT22;22158;59.280;17.806;2022-08-05T04:28:55;19.30;99.90
35668;DHT22;22158;59.280;17.806;2022-08-05T04:31:21;19.30;99.90
35668;DHT22;22158;59.280;17.806;2022-08-05T04:33:47;19.40;99.90
35668;DHT22;22158;59.280;17.806;2022-08-05T04:36:13;19.30;99.90
35668;DHT22;22158;59.280;17.806;2022-08-05T04:38:42;19.30;99.90
35668;DHT22;22158;59.280;17.806;2022-08-05T04:41:07;19.30;99.90
35668;DHT22;22158;59.280;17.806;2022-08-05T04:43:33;19.40;99.90
35668;DHT22;22158;59.280;17.806;2022-08-05T04:45:59;19.30;99.90
35668;DHT22;22158;59.280;17.806;2022-08-05T04:48:25;19.30;99.90
35668;DHT22;22158;59.280;17.806;2022-08-05T04:50:51;19.40;99.90
35668;DHT22;22158;59.280;17.806;2022-08-05T04:53:17;19.40;99.90
35668;DHT22;22158;59.280;17.806;2022-08-05T04:55:44;19.40;99.90
35668;DHT22;22158;59.280;17.806;2022-08-05T04:58:13;19.30;99.90
35668;DHT22;22158;59.280;17.806;2022-08-05T05:00:39;19.30;99.90
35668;DHT22;22158;59.280;17.806;2022-08-05T05:03:07;19.30;99.90
35668;DHT22;22158;59.280;17.806;2022-08-05T05:05:33;19.30;99.90
35668;DHT22;22158;59.280;17.806;2022-08-05T05:10:27;19.40;99.90
35668;DHT22;22158;59.280;17.806;2022-08-05T05:12:53;19.40;99.90
35668;DHT22;22158;59.280;17.806;2022-08-05T05:15:19;19.30;99.90
35668;DHT22;22158;59.280;17.806;2022-08-05T05:17:44;19.30;99.90
35668;DHT22;22158;59.280;17.806;2022-08-05T05:20:11;19.30;99.90
35668;DHT22;22158;59.280;17.806;2022-08-05T05:22:37;19.30;99.90
35668;DHT22;22158;59.280;17.806;2022-08-05T05:25:04;19.30;99.90
35668;DHT22;22158;59.280;17.806;2022-08-05T05:27:31;19.40;99.90
35668;DHT22;22158;59.280;17.806;2022-08-05T05:29:58;19.40;99.90
35668;DHT22;22158;59.280;17.806;2022-08-05T05:32:23;19.50;99.90
35668;DHT22;22158;59.280;17.806;2022-08-05T05:34:49;19.50;99.90
35668;DHT22;22158;59.280;17.806;2022-08-05T05:37:15;19.60;99.90
35668;DHT22;22158;59.280;17.806;2022-08-05T05:39:41;19.70;99.90
35668;DHT22;22158;59.280;17.806;2022-08-05T05:42:07;19.70;99.90
35668;DHT22;22158;59.280;17.806;2022-08-05T05:44:33;19.80;99.90
35668;DHT22;22158;59.280;17.806;2022-08-05T05:46:59;19.90;99.90
35668;DHT22;22158;59.280;17.806;2022-08-05T05:49:25;19.90;99.90
35668;DHT22;22158;59.280;17.806;2022-08-05T05:51:52;20.00;99.90
35668;DHT22;22158;59.280;17.806;2022-08-05T05:54:17;20.10;99.90
35668;DHT22;22158;59.280;17.806;2022-08-05T05:56:43;20.20;99.90
35668;DHT22;22158;59.280;17.806;2022-08-05T05:59:09;20.30;99.90
35668;DHT22;22158;59.280;17.806;2022-08-05T06:01:37;20.40;99.90
35668;DHT22;22158;59.280;17.806;2022-08-05T06:04:03;20.50;99.90
35668;DHT22;22158;59.280;17.806;2022-08-05T06:06:29;20.50;99.90
35668;DHT22;22158;59.280;17.806;2022-08-05T06:08:54;20.60;99.90
35668;DHT22;22158;59.280;17.806;2022-08-05T06:11:20;20.60;99.90
35668;DHT22;22158;59.280;17.806;2022-08-05T06:13:46;20.70;99.90
35668;DHT22;22158;59.280;17.806;2022-08-05T06:16:11;20.80;99.90
35668;DHT22;22158;59.280;17.806;2022-08-05T06:18:37;20.90;99.90
35668;DHT22;22158;59.280;17.806;2022-08-05T06:21:03;21.00;99.90
35668;DHT22;22158;59.280;17.806;2022-08-05T06:23:29;21.00;99.90
35668;DHT22;22158;59.280;17.806;2022-08-05T06:25:56;21.00;99.90
35668;DHT22;22158;59.280;17.806;2022-08-05T06:28:22;21.00;99.90
35668;DHT22;22158;59.280;17.806;2022-08-05T06:30:47;21.20;99.90
35668;DHT22;22158;59.280;17.806;2022-08-05T06:33:13;21.20;99.90
35668;DHT22;22158;59.280;17.806;2022-08-05T06:35:39;21.20;99.90
35668;DHT22;22158;59.280;17.806;2022-08-05T06:38:05;21.30;99.90
35668;DHT22;22158;59.280;17.806;2022-08-05T06:40:30;21.30;99.90
35668;DHT22;22158;59.280;17.806;2022-08-05T06:42:56;21.40;99.90
35668;DHT22;22158;59.280;17.806;2022-08-05T06:45:22;21.50;99.90
35668;DHT22;22158;59.280;17.806;2022-08-05T06:47:48;21.60;99.90
35668;DHT22;22158;59.280;17.806;2022-08-05T06:50:13;21.60;99.90
35668;DHT22;22158;59.280;17.806;2022-08-05T06:52:39;21.70;99.90
35668;DHT22;22158;59.280;17.806;2022-08-05T06:55:05;21.70;99.90
35668;DHT22;22158;59.280;17.806;2022-08-05T06:57:31;21.80;99.90
35668;DHT22;22158;59.280;17.806;2022-08-05T06:59:57;21.90;99.90
35668;DHT22;22158;59.280;17.806;2022-08-05T07:02:22;22.00;99.90
35668;DHT22;22158;59.280;17.806;2022-08-05T07:04:48;22.10;99.90
35668;DHT22;22158;59.280;17.806;2022-08-05T07:07:14;22.10;99.90
35668;DHT22;22158;59.280;17.806;2022-08-05T07:09:39;22.20;99.90
35668;DHT22;22158;59.280;17.806;2022-08-05T07:12:05;22.20;99.90
35668;DHT22;22158;59.280;17.806;2022-08-05T07:14:31;22.30;99.90
35668;DHT22;22158;59.280;17.806;2022-08-05T07:17:15;22.30;99.90
35668;DHT22;22158;59.280;17.806;2022-08-05T07:19:41;22.30;99.90
35668;DHT22;22158;59.280;17.806;2022-08-05T07:22:07;22.40;99.90
35668;DHT22;22158;59.280;17.806;2022-08-05T07:24:32;22.50;99.90
35668;DHT22;22158;59.280;17.806;2022-08-05T07:26:58;22.60;99.90
35668;DHT22;22158;59.280;17.806;2022-08-05T07:29:24;22.70;99.90
35668;DHT22;22158;59.280;17.806;2022-08-05T07:31:49;22.80;99.90
35668;DHT22;22158;59.280;17.806;2022-08-05T07:34:15;22.90;99.90
35668;DHT22;22158;59.280;17.806;2022-08-05T07:36:41;23.00;99.90
35668;DHT22;22158;59.280;17.806;2022-08-05T07:39:07;23.10;99.90
35668;DHT22;22158;59.280;17.806;2022-08-05T07:41:34;23.20;99.90
35668;DHT22;22158;59.280;17.806;2022-08-05T07:44:01;23.30;99.90
35668;DHT22;22158;59.280;17.806;2022-08-05T07:46:28;23.40;99.90
35668;DHT22;22158;59.280;17.806;2022-08-05T07:48:56;23.50;99.90
35668;DHT22;22158;59.280;17.806;2022-08-05T07:51:22;23.60;99.90
35668;DHT22;22158;59.280;17.806;2022-08-05T07:53:48;23.70;99.90
35668;DHT22;22158;59.280;17.806;2022-08-05T07:56:14;23.80;99.90
35668;DHT22;22158;59.280;17.806;2022-08-05T07:58:40;23.90;99.90
35668;DHT22;22158;59.280;17.806;2022-08-05T08:01:06;24.00;99.90
35668;DHT22;22158;59.280;17.806;2022-08-05T08:03:31;24.10;99.90
35668;DHT22;22158;59.280;17.806;2022-08-05T08:05:57;24.20;99.90
35668;DHT22;22158;59.280;17.806;2022-08-05T08:08:23;24.30;99.90
35668;DHT22;22158;59.280;17.806;2022-08-05T08:10:48;24.40;99.90
35668;DHT22;22158;59.280;17.806;2022-08-05T08:13:14;24.50;99.90
35668;DHT22;22158;59.280;17.806;2022-08-05T08:15:40;24.50;99.90
35668;DHT22;22158;59.280;17.806;2022-08-05T08:18:06;24.60;99.90
35668;DHT22;22158;59.280;17.806;2022-08-05T08:20:32;24.60;99.90
35668;DHT22;22158;59.280;17.806;2022-08-05T08:22:59;24.70;99.90
35668;DHT22;22158;59.280;17.806;2022-08-05T08:25:26;24.60;99.90
35668;DHT22;22158;59.280;17.806;2022-08-05T08:27:55;24.60;99.90
35668;DHT22;22158;59.280;17.806;2022-08-05T08:30:21;24.60;99.90
35668;DHT22;22158;59.280;17.806;2022-08-05T08:32:46;24.50;99.90
35668;DHT22;22158;59.280;17.806;2022-08-05T08:35:12;24.60;99.90
35668;DHT22;22158;59.280;17.806;2022-08-05T08:37:38;24.80;99.90
35668;DHT22;22158;59.280;17.806;2022-08-05T08:40:04;24.90;99.90
35668;DHT22;22158;59.280;17.806;2022-08-05T08:42:30;24.80;99.90
35668;DHT22;22158;59.280;17.806;2022-08-05T08:44:57;24.80;99.90
35668;DHT22;22158;59.280;17.806;2022-08-05T08:47:25;25.00;99.90
35668;DHT22;22158;59.280;17.806;2022-08-05T08:49:53;25.00;99.90
35668;DHT22;22158;59.280;17.806;2022-08-05T08:52:24;25.10;99.90
35668;DHT22;22158;59.280;17.806;2022-08-05T08:54:51;25.20;99.90
35668;DHT22;22158;59.280;17.806;2022-08-05T08:57:17;25.20;99.90
35668;DHT22;22158;59.280;17.806;2022-08-05T08:59:43;25.40;99.90
35668;DHT22;22158;59.280;17.806;2022-08-05T09:02:10;25.50;99.90
35668;DHT22;22158;59.280;17.806;2022-08-05T09:04:36;25.60;99.00
35668;DHT22;22158;59.280;17.806;2022-08-05T09:07:06;25.60;99.40
35668;DHT22;22158;59.280;17.806;2022-08-05T09:09:33;25.70;99.20
35668;DHT22;22158;59.280;17.806;2022-08-05T09:12:00;25.80;98.70
35668;DHT22;22158;59.280;17.806;2022-08-05T09:14:26;26.00;99.90
35668;DHT22;22158;59.280;17.806;2022-08-05T09:16:52;26.10;99.40
35668;DHT22;22158;59.280;17.806;2022-08-05T09:19:18;26.20;98.30
35668;DHT22;22158;59.280;17.806;2022-08-05T09:21:44;26.40;98.80
35668;DHT22;22158;59.280;17.806;2022-08-05T09:24:09;26.50;99.00
35668;DHT22;22158;59.280;17.806;2022-08-05T09:26:38;26.50;97.70
35668;DHT22;22158;59.280;17.806;2022-08-05T09:29:05;26.40;98.00
35668;DHT22;22158;59.280;17.806;2022-08-05T09:31:32;26.30;97.90
35668;DHT22;22158;59.280;17.806;2022-08-05T09:34:04;26.40;97.50
35668;DHT22;22158;59.280;17.806;2022-08-05T09:36:46;26.50;97.50
35668;DHT22;22158;59.280;17.806;2022-08-05T09:39:17;26.60;96.70
35668;DHT22;22158;59.280;17.806;2022-08-05T09:42:00;26.40;96.70
35668;DHT22;22158;59.280;17.806;2022-08-05T09:44:52;26.40;96.70
35668;DHT22;22158;59.280;17.806;2022-08-05T09:47:21;26.50;97.00
35668;DHT22;22158;59.280;17.806;2022-08-05T09:49:55;26.60;96.40
35668;DHT22;22158;59.280;17.806;2022-08-05T09:52:34;26.70;96.80
35668;DHT22;22158;59.280;17.806;2022-08-05T09:55:06;26.80;96.80
35668;DHT22;22158;59.280;17.806;2022-08-05T10:02:31;27.10;96.80
35668;DHT22;22158;59.280;17.806;2022-08-05T10:05:03;27.00;96.30
35668;DHT22;22158;59.280;17.806;2022-08-05T10:10:14;26.70;95.80
35668;DHT22;22158;59.280;17.806;2022-08-05T10:17:42;26.30;97.10
35668;DHT22;22158;59.280;17.806;2022-08-05T10:20:08;26.30;96.70
35668;DHT22;22158;59.280;17.806;2022-08-05T10:22:38;26.30;97.00
35668;DHT22;22158;59.280;17.806;2022-08-05T10:25:05;26.10;97.20
35668;DHT22;22158;59.280;17.806;2022-08-05T10:27:31;26.00;97.90
35668;DHT22;22158;59.280;17.806;2022-08-05T10:29:56;25.90;98.20
35668;DHT22;22158;59.280;17.806;2022-08-05T10:32:22;25.90;98.10
35668;DHT22;22158;59.280;17.806;2022-08-05T10:34:48;26.00;97.90
35668;DHT22;22158;59.280;17.806;2022-08-05T10:37:15;26.10;98.40
35668;DHT22;22158;59.280;17.806;2022-08-05T10:39:44;26.20;97.90
35668;DHT22;22158;59.280;17.806;2022-08-05T10:42:11;26.30;97.60
35668;DHT22;22158;59.280;17.806;2022-08-05T10:44:38;26.40;96.80
35668;DHT22;22158;59.280;17.806;2022-08-05T10:47:12;26.30;97.00
35668;DHT22;22158;59.280;17.806;2022-08-05T10:50:04;26.20;96.30
35668;DHT22;22158;59.280;17.806;2022-08-05T10:52:41;26.10;96.90
35668;DHT22;22158;59.280;17.806;2022-08-05T10:55:13;26.00;96.80
35668;DHT22;22158;59.280;17.806;2022-08-05T10:57:41;25.80;97.20
35668;DHT22;22158;59.280;17.806;2022-08-05T11:00:19;25.80;97.20
35668;DHT22;22158;59.280;17.806;2022-08-05T11:05:35;25.50;96.60
35668;DHT22;22158;59.280;17.806;2022-08-05T11:08:07;25.40;99.00
35668;DHT22;22158;59.280;17.806;2022-08-05T11:10:34;25.20;99.40
35668;DHT22;22158;59.280;17.806;2022-08-05T11:13:06;25.00;99.90
35668;DHT22;22158;59.280;17.806;2022-08-05T11:15:37;24.80;99.90
35668;DHT22;22158;59.280;17.806;2022-08-05T11:18:24;24.70;99.90
35668;DHT22;22158;59.280;17.806;2022-08-05T11:20:50;24.50;99.90
35668;DHT22;22158;59.280;17.806;2022-08-05T11:26:26;24.30;99.90
35668;DHT22;22158;59.280;17.806;2022-08-05T11:28:53;24.20;99.90
35668;DHT22;22158;59.280;17.806;2022-08-05T11:31:24;24.20;99.90
35668;DHT22;22158;59.280;17.806;2022-08-05T11:34:04;24.10;99.90
35668;DHT22;22158;59.280;17.806;2022-08-05T11:36:43;23.90;99.90
35668;DHT22;22158;59.280;17.806;2022-08-05T11:39:12;23.80;99.90
35668;DHT22;22158;59.280;17.806;2022-08-05T11:41:38;23.80;99.90
35668;DHT22;22158;59.280;17.806;2022-08-05T11:44:11;23.80;99.90
35668;DHT22;22158;59.280;17.806;2022-08-05T11:46:50;23.70;99.90
35668;DHT22;22158;59.280;17.806;2022-08-05T11:49:18;23.70;99.90
35668;DHT22;22158;59.280;17.806;2022-08-05T11:51:46;23.70;99.90
35668;DHT22;22158;59.280;17.806;2022-08-05T11:54:23;23.60;99.90
35668;DHT22;22158;59.280;17.806;2022-08-05T11:56:53;23.50;99.90
35668;DHT22;22158;59.280;17.806;2022-08-05T11:59:21;23.50;99.90
35668;DHT22;22158;59.280;17.806;2022-08-05T12:02:04;23.40;99.90
35668;DHT22;22158;59.280;17.806;2022-08-05T12:04:39;23.40;99.90
35668;DHT22;22158;59.280;17.806;2022-08-05T12:07:10;23.40;99.90
35668;DHT22;22158;59.280;17.806;2022-08-05T12:09:38;23.40;99.90
35668;DHT22;22158;59.280;17.806;2022-08-05T12:12:05;23.30;99.90
35668;DHT22;22158;59.280;17.806;2022-08-05T12:14:40;23.20;99.90
35668;DHT22;22158;59.280;17.806;2022-08-05T12:17:11;23.10;99.90
35668;DHT22;22158;59.280;17.806;2022-08-05T12:19:43;23.00;99.90
35668;DHT22;22158;59.280;17.806;2022-08-05T12:22:08;22.90;99.90
35668;DHT22;22158;59.280;17.806;2022-08-05T12:24:40;22.80;99.90
35668;DHT22;22158;59.280;17.806;2022-08-05T12:27:06;22.80;99.90
35668;DHT22;22158;59.280;17.806;2022-08-05T12:29:32;22.60;99.90
35668;DHT22;22158;59.280;17.806;2022-08-05T12:31:59;22.60;99.90
35668;DHT22;22158;59.280;17.806;2022-08-05T12:34:33;22.30;99.90
35668;DHT22;22158;59.280;17.806;2022-08-05T12:37:10;22.20;99.90
35668;DHT22;22158;59.280;17.806;2022-08-05T12:39:39;22.10;99.90
35668;DHT22;22158;59.280;17.806;2022-08-05T12:42:12;22.00;99.90
35668;DHT22;22158;59.280;17.806;2022-08-05T12:44:41;21.90;99.90
35668;DHT22;22158;59.280;17.806;2022-08-05T12:47:06;21.90;99.90
35668;DHT22;22158;59.280;17.806;2022-08-05T12:49:45;21.90;99.90
35668;DHT22;22158;59.280;17.806;2022-08-05T12:52:15;21.70;99.90
35668;DHT22;22158;59.280;17.806;2022-08-05T12:54:41;21.60;99.90
35668;DHT22;22158;59.280;17.806;2022-08-05T12:57:08;21.50;99.90
35668;DHT22;22158;59.280;17.806;2022-08-05T12:59:50;21.50;99.90
35668;DHT22;22158;59.280;17.806;2022-08-05T13:02:25;21.40;99.90
35668;DHT22;22158;59.280;17.806;2022-08-05T13:04:52;21.30;99.90
35668;DHT22;22158;59.280;17.806;2022-08-05T13:07:21;21.30;99.90
35668;DHT22;22158;59.280;17.806;2022-08-05T13:09:52;21.10;99.90
35668;DHT22;22158;59.280;17.806;2022-08-05T13:12:22;21.10;99.90
35668;DHT22;22158;59.280;17.806;2022-08-05T13:14:52;21.00;99.90
35668;DHT22;22158;59.280;17.806;2022-08-05T13:17:24;21.00;99.90
35668;DHT22;22158;59.280;17.806;2022-08-05T13:20:07;20.90;99.90
35668;DHT22;22158;59.280;17.806;2022-08-05T13:22:42;20.90;99.90
35668;DHT22;22158;59.280;17.806;2022-08-05T13:25:09;20.90;99.90
35668;DHT22;22158;59.280;17.806;2022-08-05T13:27:45;20.90;99.90
35668;DHT22;22158;59.280;17.806;2022-08-05T13:30:13;21.00;99.90
35668;DHT22;22158;59.280;17.806;2022-08-05T13:32:40;21.10;99.90
35668;DHT22;22158;59.280;17.806;2022-08-05T13:35:06;21.10;99.90
35668;DHT22;22158;59.280;17.806;2022-08-05T13:37:34;21.10;99.90
35668;DHT22;22158;59.280;17.806;2022-08-05T13:39:59;21.20;99.90
35668;DHT22;22158;59.280;17.806;2022-08-05T13:42:25;21.10;99.90
35668;DHT22;22158;59.280;17.806;2022-08-05T13:44:55;21.10;99.90
35668;DHT22;22158;59.280;17.806;2022-08-05T13:47:24;21.20;99.90
35668;DHT22;22158;59.280;17.806;2022-08-05T13:49:51;21.20;99.90
35668;DHT22;22158;59.280;17.806;2022-08-05T13:52:19;21.10;99.90
35668;DHT22;22158;59.280;17.806;2022-08-05T13:54:46;21.00;99.90
35668;DHT22;22158;59.280;17.806;2022-08-05T13:57:12;20.90;99.90
35668;DHT22;22158;59.280;17.806;2022-08-05T13:59:39;20.80;99.90
35668;DHT22;22158;59.280;17.806;2022-08-05T14:02:06;20.80;99.90
35668;DHT22;22158;59.280;17.806;2022-08-05T14:04:37;20.80;99.90
35668;DHT22;22158;59.280;17.806;2022-08-05T14:07:41;20.80;99.90
35668;DHT22;22158;59.280;17.806;2022-08-05T14:10:15;20.80;99.90
35668;DHT22;22158;59.280;17.806;2022-08-05T14:12:41;20.80;99.90
35668;DHT22;22158;59.280;17.806;2022-08-05T14:15:08;20.80;99.90
35668;DHT22;22158;59.280;17.806;2022-08-05T14:17:33;20.80;99.90
35668;DHT22;22158;59.280;17.806;2022-08-05T14:19:59;20.70;99.90
35668;DHT22;22158;59.280;17.806;2022-08-05T14:22:25;20.70;99.90
35668;DHT22;22158;59.280;17.806;2022-08-05T14:24:51;20.70;99.90
35668;DHT22;22158;59.280;17.806;2022-08-05T14:27:17;20.50;99.90
35668;DHT22;22158;59.280;17.806;2022-08-05T14:29:43;20.50;99.90
35668;DHT22;22158;59.280;17.806;2022-08-05T14:32:08;20.50;99.90
35668;DHT22;22158;59.280;17.806;2022-08-05T14:34:34;20.60;99.90
35668;DHT22;22158;59.280;17.806;2022-08-05T14:37:00;20.60;99.90
35668;DHT22;22158;59.280;17.806;2022-08-05T14:39:26;20.60;99.90
35668;DHT22;22158;59.280;17.806;2022-08-05T14:41:52;20.70;99.90
35668;DHT22;22158;59.280;17.806;2022-08-05T14:44:17;20.60;99.90
35668;DHT22;22158;59.280;17.806;2022-08-05T14:46:43;20.70;99.90
35668;DHT22;22158;59.280;17.806;2022-08-05T14:49:09;20.70;99.90
35668;DHT22;22158;59.280;17.806;2022-08-05T14:51:36;20.70;99.90
35668;DHT22;22158;59.280;17.806;2022-08-05T14:54:02;20.70;99.90
35668;DHT22;22158;59.280;17.806;2022-08-05T14:56:27;20.70;99.90
35668;DHT22;22158;59.280;17.806;2022-08-05T14:58:54;20.70;99.90
35668;DHT22;22158;59.280;17.806;2022-08-05T15:01:19;20.70;99.90
35668;DHT22;22158;59.280;17.806;2022-08-05T15:03:45;20.70;99.90
35668;DHT22;22158;59.280;17.806;2022-08-05T15:06:11;20.70;99.90
35668;DHT22;22158;59.280;17.806;2022-08-05T15:08:37;20.70;99.90
35668;DHT22;22158;59.280;17.806;2022-08-05T15:11:02;20.70;99.90
35668;DHT22;22158;59.280;17.806;2022-08-05T15:13:28;20.70;99.90
35668;DHT22;22158;59.280;17.806;2022-08-05T15:15:54;20.70;99.90
35668;DHT22;22158;59.280;17.806;2022-08-05T15:18:20;20.70;99.90
35668;DHT22;22158;59.280;17.806;2022-08-05T15:20:46;20.70;99.90
35668;DHT22;22158;59.280;17.806;2022-08-05T15:23:12;20.70;99.90
35668;DHT22;22158;59.280;17.806;2022-08-05T15:25:38;20.70;99.90
35668;DHT22;22158;59.280;17.806;2022-08-05T15:28:06;20.70;99.90
35668;DHT22;22158;59.280;17.806;2022-08-05T15:30:33;20.80;99.90
35668;DHT22;22158;59.280;17.806;2022-08-05T15:33:04;20.80;99.90
35668;DHT22;22158;59.280;17.806;2022-08-05T15:35:30;20.80;99.90
35668;DHT22;22158;59.280;17.806;2022-08-05T15:37:56;20.90;99.90
35668;DHT22;22158;59.280;17.806;2022-08-05T15:40:22;20.90;99.90
35668;DHT22;22158;59.280;17.806;2022-08-05T15:42:48;20.90;99.90
35668;DHT22;22158;59.280;17.806;2022-08-05T15:45:13;20.80;99.90
35668;DHT22;22158;59.280;17.806;2022-08-05T15:47:40;20.90;99.90
35668;DHT22;22158;59.280;17.806;2022-08-05T15:50:06;20.90;99.90
35668;DHT22;22158;59.280;17.806;2022-08-05T15:52:33;20.90;99.90